sensor_id;sensor_type;location;lat;lon;timestamp;pressure;altitude;pressure_sealevel;temperature;humidity
7337;BME280;54510;42.016;23.098;2022-08-19T00:00:23;-21934.72;;;29.38;40.93
7337;BME280;54510;42.016;23.098;2022-08-19T00:02:49;-21931.19;;;29.25;41.56
7337;BME280;54510;42.016;23.098;2022-08-19T00:05:16;-21924.81;;;29.01;41.99
7337;BME280;54510;42.016;23.098;2022-08-19T00:07:42;-21924.03;;;28.98;42.02
7337;BME280;54510;42.016;23.098;2022-08-19T00:10:09;-21916.56;;;28.71;42.63
7337;BME280;54510;42.016;23.098;2022-08-19T00:12:36;-21918.34;;;28.77;42.31
7337;BME280;54510;42.016;23.098;2022-08-19T00:15:04;-21928.22;;;29.14;41.44
7337;BME280;54510;42.016;23.098;2022-08-19T00:17:29;-21924.69;;;29.01;42.00
7337;BME280;54510;42.016;23.098;2022-08-19T00:19:55;-21922.78;;;28.94;41.54
7337;BME280;54510;42.016;23.098;2022-08-19T00:22:21;-21929.44;;;29.19;41.70
7337;BME280;54510;42.016;23.098;2022-08-19T00:24:46;-21934.97;;;29.39;41.39
7337;BME280;54510;42.016;23.098;2022-08-19T00:27:13;-21936.31;;;29.44;40.93
7337;BME280;54510;42.016;23.098;2022-08-19T00:29:38;-21931.31;;;29.26;41.74
7337;BME280;54510;42.016;23.098;2022-08-19T00:32:05;-21923.88;;;28.98;41.87
7337;BME280;54510;42.016;23.098;2022-08-19T00:34:31;-21913.84;;;28.60;42.79
7337;BME280;54510;42.016;23.098;2022-08-19T00:36:57;-21909.13;;;28.43;43.23
7337;BME280;54510;42.016;23.098;2022-08-19T00:39:25;-21920.22;;;28.84;42.19
7337;BME280;54510;42.016;23.098;2022-08-19T00:41:51;-21912.22;;;28.54;42.47
7337;BME280;54510;42.016;23.098;2022-08-19T00:46:49;-21909.94;;;28.46;42.31
7337;BME280;54510;42.016;23.098;2022-08-19T00:51:45;-21904.91;;;28.27;43.53
7337;BME280;54510;42.016;23.098;2022-08-19T00:54:12;-21912.63;;;28.56;42.61
7337;BME280;54510;42.016;23.098;2022-08-19T00:56:37;-21913.84;;;28.60;42.55
7337;BME280;54510;42.016;23.098;2022-08-19T00:59:04;-21906.53;;;28.33;43.07
7337;BME280;54510;42.016;23.098;2022-08-19T01:01:36;-21907.63;;;28.37;43.01
7337;BME280;54510;42.016;23.098;2022-08-19T01:04:02;-21915.88;;;28.68;42.32
7337;BME280;54510;42.016;23.098;2022-08-19T01:06:27;-21925.22;;;29.03;41.56
7337;BME280;54510;42.016;23.098;2022-08-19T01:08:54;-21924.81;;;29.01;41.49
7337;BME280;54510;42.016;23.098;2022-08-19T01:11:20;-21926.03;;;29.06;41.92
7337;BME280;54510;42.016;23.098;2022-08-19T01:13:46;-21927.53;;;29.12;42.06
7337;BME280;54510;42.016;23.098;2022-08-19T01:16:13;-21920.63;;;28.86;43.07
7337;BME280;54510;42.016;23.098;2022-08-19T01:18:41;-21924.56;;;29.00;42.08
7337;BME280;54510;42.016;23.098;2022-08-19T01:23:55;-21916.84;;;28.72;43.02
7337;BME280;54510;42.016;23.098;2022-08-19T01:26:23;-21913.72;;;28.60;44.03
7337;BME280;54510;42.016;23.098;2022-08-19T01:28:51;-21915.22;;;28.65;43.61
7337;BME280;54510;42.016;23.098;2022-08-19T01:31:23;-21914.41;;;28.62;43.56
7337;BME280;54510;42.016;23.098;2022-08-19T01:33:51;-21916.69;;;28.71;43.72
7337;BME280;54510;42.016;23.098;2022-08-19T01:36:29;-21916.56;;;28.71;43.48
7337;BME280;54510;42.016;23.098;2022-08-19T01:38:56;-21917.13;;;28.73;43.38
7337;BME280;54510;42.016;23.098;2022-08-19T01:41:22;-21903.84;;;28.23;43.93
7337;BME280;54510;42.016;23.098;2022-08-19T01:43:49;-21908.72;;;28.41;43.22
7337;BME280;54510;42.016;23.098;2022-08-19T01:46:16;-21904.25;;;28.24;43.74
7337;BME280;54510;42.016;23.098;2022-08-19T01:48:42;-21903.84;;;28.23;44.14
7337;BME280;54510;42.016;23.098;2022-08-19T01:51:09;-21907.78;;;28.38;43.64
7337;BME280;54510;42.016;23.098;2022-08-19T01:53:36;-21900.84;;;28.12;43.76
7337;BME280;54510;42.016;23.098;2022-08-19T01:56:03;-21898.41;;;28.03;44.48
7337;BME280;54510;42.016;23.098;2022-08-19T01:58:32;-21887.72;;;27.63;45.23
7337;BME280;54510;42.016;23.098;2022-08-19T02:01:01;-21884.59;;;27.51;45.40
7337;BME280;54510;42.016;23.098;2022-08-19T02:03:26;-21885.41;;;27.54;45.18
7337;BME280;54510;42.016;23.098;2022-08-19T02:05:57;-21888.94;;;27.67;45.25
7337;BME280;54510;42.016;23.098;2022-08-19T02:08:28;-21890.00;;;27.71;45.07
7337;BME280;54510;42.016;23.098;2022-08-19T02:10:54;-21889.19;;;27.68;45.36
7337;BME280;54510;42.016;23.098;2022-08-19T02:13:20;-21876.84;;;27.22;45.70
7337;BME280;54510;42.016;23.098;2022-08-19T02:15:46;-21888.38;;;27.65;45.35
7337;BME280;54510;42.016;23.098;2022-08-19T02:18:12;-21891.91;;;27.78;44.90
7337;BME280;54510;42.016;23.098;2022-08-19T02:20:39;-21891.63;;;27.77;44.70
7337;BME280;54510;42.016;23.098;2022-08-19T02:23:05;-21882.41;;;27.43;45.01
7337;BME280;54510;42.016;23.098;2022-08-19T02:25:31;-21878.34;;;27.28;45.33
7337;BME280;54510;42.016;23.098;2022-08-19T02:27:56;-21879.84;;;27.33;45.69
7337;BME280;54510;42.016;23.098;2022-08-19T02:30:22;-21884.31;;;27.50;45.01
7337;BME280;54510;42.016;23.098;2022-08-19T02:32:48;-21881.59;;;27.40;45.24
7337;BME280;54510;42.016;23.098;2022-08-19T02:35:14;-21880.50;;;27.36;45.18
7337;BME280;54510;42.016;23.098;2022-08-19T02:37:41;-21888.94;;;27.67;44.75
7337;BME280;54510;42.016;23.098;2022-08-19T02:40:25;-21886.09;;;27.57;44.54
7337;BME280;54510;42.016;23.098;2022-08-19T02:42:51;-21881.59;;;27.40;45.26
7337;BME280;54510;42.016;23.098;2022-08-19T02:45:16;-21886.75;;;27.59;44.98
7337;BME280;54510;42.016;23.098;2022-08-19T02:47:42;-21885.13;;;27.53;44.66
7337;BME280;54510;42.016;23.098;2022-08-19T02:50:08;-21881.72;;;27.40;44.90
7337;BME280;54510;42.016;23.098;2022-08-19T02:52:34;-21881.59;;;27.40;45.23
7337;BME280;54510;42.016;23.098;2022-08-19T02:55:00;-21882.69;;;27.44;45.71
7337;BME280;54510;42.016;23.098;2022-08-19T02:57:26;-21867.06;;;26.86;46.79
7337;BME280;54510;42.016;23.098;2022-08-19T02:59:52;-21866.81;;;26.85;47.21
7337;BME280;54510;42.016;23.098;2022-08-19T03:02:18;-21866.66;;;26.84;47.21
7337;BME280;54510;42.016;23.098;2022-08-19T03:04:43;-21857.56;;;26.50;47.62
7337;BME280;54510;42.016;23.098;2022-08-19T03:07:09;-21854.16;;;26.38;48.22
7337;BME280;54510;42.016;23.098;2022-08-19T03:09:38;-21858.38;;;26.53;47.82
7337;BME280;54510;42.016;23.098;2022-08-19T03:12:04;-21861.22;;;26.64;47.39
7337;BME280;54510;42.016;23.098;2022-08-19T03:14:31;-21857.69;;;26.51;47.87
7337;BME280;54510;42.016;23.098;2022-08-19T03:16:58;-21860.69;;;26.62;47.76
7337;BME280;54510;42.016;23.098;2022-08-19T03:19:23;-21859.88;;;26.59;47.97
7337;BME280;54510;42.016;23.098;2022-08-19T03:21:49;-21858.25;;;26.53;47.61
7337;BME280;54510;42.016;23.098;2022-08-19T03:24:17;-21859.34;;;26.57;47.30
7337;BME280;54510;42.016;23.098;2022-08-19T03:26:48;-21859.88;;;26.59;47.60
7337;BME280;54510;42.016;23.098;2022-08-19T03:29:15;-21856.06;;;26.45;47.55
7337;BME280;54510;42.016;23.098;2022-08-19T03:31:43;-21853.63;;;26.35;48.55
7337;BME280;54510;42.016;23.098;2022-08-19T03:34:10;-21854.03;;;26.37;47.86
7337;BME280;54510;42.016;23.098;2022-08-19T03:36:37;-21863.41;;;26.72;47.59
7337;BME280;54510;42.016;23.098;2022-08-19T03:39:03;-21861.91;;;26.66;47.61
7337;BME280;54510;42.016;23.098;2022-08-19T03:41:35;-21858.94;;;26.55;48.01
7337;BME280;54510;42.016;23.098;2022-08-19T03:44:02;-21858.13;;;26.52;48.00
7337;BME280;54510;42.016;23.098;2022-08-19T03:46:30;-21861.50;;;26.65;47.62
7337;BME280;54510;42.016;23.098;2022-08-19T03:48:57;-21849.94;;;26.22;48.38
7337;BME280;54510;42.016;23.098;2022-08-19T03:51:29;-21858.38;;;26.53;47.71
7337;BME280;54510;42.016;23.098;2022-08-19T03:53:57;-21867.63;;;26.88;46.80
7337;BME280;54510;42.016;23.098;2022-08-19T03:56:23;-21857.69;;;26.51;47.56
7337;BME280;54510;42.016;23.098;2022-08-19T03:58:51;-21848.47;;;26.16;48.72
7337;BME280;54510;42.016;23.098;2022-08-19T04:01:23;-21862.59;;;26.69;47.32
7337;BME280;54510;42.016;23.098;2022-08-19T04:03:48;-21867.22;;;26.86;46.86
7337;BME280;54510;42.016;23.098;2022-08-19T04:06:22;-21871.00;;;27.00;46.31
7337;BME280;54510;42.016;23.098;2022-08-19T04:08:51;-21860.41;;;26.61;47.21
7337;BME280;54510;42.016;23.098;2022-08-19T04:11:23;-21867.88;;;26.89;47.36
7337;BME280;54510;42.016;23.098;2022-08-19T04:13:52;-21878.06;;;27.27;46.44
7337;BME280;54510;42.016;23.098;2022-08-19T04:16:18;-21877.13;;;27.23;46.22
7337;BME280;54510;42.016;23.098;2022-08-19T04:18:46;-21872.78;;;27.07;46.08
7337;BME280;54510;42.016;23.098;2022-08-19T04:21:21;-21873.47;;;27.09;46.63
7337;BME280;54510;42.016;23.098;2022-08-19T04:23:48;-21871.00;;;27.00;46.26
7337;BME280;54510;42.016;23.098;2022-08-19T04:26:16;-21870.47;;;26.98;46.71
7337;BME280;54510;42.016;23.098;2022-08-19T04:28:42;-21874.00;;;27.11;46.54
7337;BME280;54510;42.016;23.098;2022-08-19T04:31:14;-21876.03;;;27.19;46.47
7337;BME280;54510;42.016;23.098;2022-08-19T04:33:40;-21874.41;;;27.13;46.60
7337;BME280;54510;42.016;23.098;2022-08-19T04:36:06;-21876.59;;;27.21;46.36
7337;BME280;54510;42.016;23.098;2022-08-19T04:38:31;-21877.38;;;27.24;46.14
7337;BME280;54510;42.016;23.098;2022-08-19T04:40:57;-21875.22;;;27.16;46.47
7337;BME280;54510;42.016;23.098;2022-08-19T04:43:41;-21880.38;;;27.35;45.92
7337;BME280;54510;42.016;23.098;2022-08-19T04:46:11;-21878.75;;;27.29;46.50
7337;BME280;54510;42.016;23.098;2022-08-19T04:48:38;-21879.16;;;27.31;46.50
7337;BME280;54510;42.016;23.098;2022-08-19T04:51:07;-21871.56;;;27.02;46.91
7337;BME280;54510;42.016;23.098;2022-08-19T04:53:35;-21874.00;;;27.11;47.04
7337;BME280;54510;42.016;23.098;2022-08-19T04:56:09;-21874.41;;;27.13;47.22
7337;BME280;54510;42.016;23.098;2022-08-19T04:58:36;-21883.78;;;27.48;46.06
7337;BME280;54510;42.016;23.098;2022-08-19T05:01:03;-21893.25;;;27.83;44.87
7337;BME280;54510;42.016;23.098;2022-08-19T05:03:28;-21885.41;;;27.54;45.43
7337;BME280;54510;42.016;23.098;2022-08-19T05:05:57;-21884.03;;;27.49;45.47
7337;BME280;54510;42.016;23.098;2022-08-19T05:08:23;-21890.97;;;27.75;45.22
7337;BME280;54510;42.016;23.098;2022-08-19T05:10:50;-21893.41;;;27.84;45.12
7337;BME280;54510;42.016;23.098;2022-08-19T05:13:18;-21900.84;;;28.12;44.40
7337;BME280;54510;42.016;23.098;2022-08-19T05:15:45;-21899.38;;;28.06;44.48
7337;BME280;54510;42.016;23.098;2022-08-19T05:18:18;-21900.03;;;28.09;44.33
7337;BME280;54510;42.016;23.098;2022-08-19T05:21:11;-21895.28;;;27.91;44.88
7337;BME280;54510;42.016;23.098;2022-08-19T05:23:56;-21895.03;;;27.90;44.72
7337;BME280;54510;42.016;23.098;2022-08-19T05:26:23;-21902.22;;;28.17;44.93
7337;BME280;54510;42.016;23.098;2022-08-19T05:28:49;-21906.69;;;28.34;43.97
7337;BME280;54510;42.016;23.098;2022-08-19T05:31:15;-21905.47;;;28.29;43.75
7337;BME280;54510;42.016;23.098;2022-08-19T05:33:40;-21911.44;;;28.51;43.28
7337;BME280;54510;42.016;23.098;2022-08-19T05:36:06;-21916.69;;;28.71;43.34
7337;BME280;54510;42.016;23.098;2022-08-19T05:38:33;-21922.53;;;28.93;42.77
7337;BME280;54510;42.016;23.098;2022-08-19T05:41:00;-21921.59;;;28.89;43.49
7337;BME280;54510;42.016;23.098;2022-08-19T05:43:25;-21916.69;;;28.71;44.58
7337;BME280;54510;42.016;23.098;2022-08-19T05:45:51;-21922.78;;;28.94;44.19
7337;BME280;54510;42.016;23.098;2022-08-19T05:48:17;-21922.13;;;28.91;44.62
7337;BME280;54510;42.016;23.098;2022-08-19T05:50:46;-21921.31;;;28.88;44.28
7337;BME280;54510;42.016;23.098;2022-08-19T05:53:12;-21926.59;;;29.08;43.71
7337;BME280;54510;42.016;23.098;2022-08-19T05:55:41;-21932.25;;;29.29;43.15
7337;BME280;54510;42.016;23.098;2022-08-19T05:58:07;-21932.81;;;29.31;43.42
7337;BME280;54510;42.016;23.098;2022-08-19T06:00:33;-21936.88;;;29.47;42.77
7337;BME280;54510;42.016;23.098;2022-08-19T06:02:59;-21939.03;;;29.55;42.78
7337;BME280;54510;42.016;23.098;2022-08-19T06:05:31;-21940.13;;;29.59;42.91
7337;BME280;54510;42.016;23.098;2022-08-19T06:07:57;-21947.69;;;29.87;42.06
7337;BME280;54510;42.016;23.098;2022-08-19T06:10:24;-21942.56;;;29.68;42.23
7337;BME280;54510;42.016;23.098;2022-08-19T06:12:50;-21937.41;;;29.49;42.48
7337;BME280;54510;42.016;23.098;2022-08-19T06:15:15;-21941.06;;;29.62;42.06
7337;BME280;54510;42.016;23.098;2022-08-19T06:17:42;-21946.06;;;29.81;41.00
7337;BME280;54510;42.016;23.098;2022-08-19T06:20:12;-21948.75;;;29.91;41.39
7337;BME280;54510;42.016;23.098;2022-08-19T06:22:43;-21950.94;;;29.99;41.45
7337;BME280;54510;42.016;23.098;2022-08-19T06:25:10;-21947.53;;;29.87;41.25
7337;BME280;54510;42.016;23.098;2022-08-19T06:27:35;-21952.56;;;30.05;40.99
7337;BME280;54510;42.016;23.098;2022-08-19T06:30:03;-21960.25;;;30.34;40.83
7337;BME280;54510;42.016;23.098;2022-08-19T06:32:28;-21967.81;;;30.63;39.95
7337;BME280;54510;42.016;23.098;2022-08-19T06:34:54;-21970.50;;;30.73;39.88
7337;BME280;54510;42.016;23.098;2022-08-19T06:37:20;-21977.25;;;30.98;39.59
7337;BME280;54510;42.016;23.098;2022-08-19T06:39:47;-21975.63;;;30.92;39.44
7337;BME280;54510;42.016;23.098;2022-08-19T06:42:12;-21979.81;;;31.08;39.16
7337;BME280;54510;42.016;23.098;2022-08-19T06:44:43;-21967.81;;;30.63;39.88
7337;BME280;54510;42.016;23.098;2022-08-19T06:47:13;-21976.72;;;30.96;39.72
7337;BME280;54510;42.016;23.098;2022-08-19T06:49:39;-21987.38;;;31.36;38.49
7337;BME280;54510;42.016;23.098;2022-08-19T06:52:05;-21989.13;;;31.43;38.55
7337;BME280;54510;42.016;23.098;2022-08-19T06:54:31;-21990.06;;;31.46;39.12
7337;BME280;54510;42.016;23.098;2022-08-19T06:56:58;-21998.56;;;31.78;38.09
7337;BME280;54510;42.016;23.098;2022-08-19T06:59:28;-22002.47;;;31.93;37.84
7337;BME280;54510;42.016;23.098;2022-08-19T07:01:56;-22004.88;;;32.02;37.92
7337;BME280;54510;42.016;23.098;2022-08-19T07:04:24;-22011.09;;;32.25;36.86
7337;BME280;54510;42.016;23.098;2022-08-19T07:06:59;-22000.19;;;31.84;37.69
7337;BME280;54510;42.016;23.098;2022-08-19T07:09:24;-22007.44;;;32.11;37.34
7337;BME280;54510;42.016;23.098;2022-08-19T07:11:52;-21997.09;;;31.72;37.63
7337;BME280;54510;42.016;23.098;2022-08-19T07:14:21;-22003.69;;;31.97;37.64
7337;BME280;54510;42.016;23.098;2022-08-19T07:16:49;-22011.22;;;32.26;36.91
7337;BME280;54510;42.016;23.098;2022-08-19T07:19:18;-22015.94;;;32.43;36.21
7337;BME280;54510;42.016;23.098;2022-08-19T07:21:44;-22023.88;;;32.73;36.21
7337;BME280;54510;42.016;23.098;2022-08-19T07:24:10;-22029.38;;;32.94;35.62
7337;BME280;54510;42.016;23.098;2022-08-19T07:26:40;-22032.06;;;33.04;36.24
7337;BME280;54510;42.016;23.098;2022-08-19T07:29:06;-22037.72;;;33.25;35.31
7337;BME280;54510;42.016;23.098;2022-08-19T07:31:32;-22032.22;;;33.05;34.68
7337;BME280;54510;42.016;23.098;2022-08-19T07:34:02;-22032.47;;;33.06;35.39
7337;BME280;54510;42.016;23.098;2022-08-19T07:36:28;-22036.66;;;33.21;35.34
7337;BME280;54510;42.016;23.098;2022-08-19T07:38:58;-22037.06;;;33.23;34.49
7337;BME280;54510;42.016;23.098;2022-08-19T07:41:25;-22039.72;;;33.33;34.57
7337;BME280;54510;42.016;23.098;2022-08-19T07:43:52;-22037.31;;;33.24;34.37
7337;BME280;54510;42.016;23.098;2022-08-19T07:46:19;-22037.44;;;33.24;35.23
7337;BME280;54510;42.016;23.098;2022-08-19T07:48:47;-22042.03;;;33.42;34.26
7337;BME280;54510;42.016;23.098;2022-08-19T07:51:18;-22046.44;;;33.58;34.19
7337;BME280;54510;42.016;23.098;2022-08-19T07:53:44;-22048.31;;;33.65;33.76
7337;BME280;54510;42.016;23.098;2022-08-19T07:56:12;-22045.25;;;33.54;33.08
7337;BME280;54510;42.016;23.098;2022-08-19T07:58:40;-22051.69;;;33.78;33.36
7337;BME280;54510;42.016;23.098;2022-08-19T08:01:09;-22056.38;;;33.96;33.38
7337;BME280;54510;42.016;23.098;2022-08-19T08:03:36;-22059.06;;;34.06;33.02
7337;BME280;54510;42.016;23.098;2022-08-19T08:06:20;-22055.31;;;33.92;33.33
7337;BME280;54510;42.016;23.098;2022-08-19T08:09:05;-22058.66;;;34.04;32.80
7337;BME280;54510;42.016;23.098;2022-08-19T08:11:38;-22056.00;;;33.94;32.78
7337;BME280;54510;42.016;23.098;2022-08-19T08:14:04;-22069.28;;;34.44;32.50
7337;BME280;54510;42.016;23.098;2022-08-19T08:16:35;-22068.34;;;34.41;32.46
7337;BME280;54510;42.016;23.098;2022-08-19T08:19:00;-22066.19;;;34.33;31.92
7337;BME280;54510;42.016;23.098;2022-08-19T08:21:26;-22070.22;;;34.48;31.86
7337;BME280;54510;42.016;23.098;2022-08-19T08:23:51;-22072.91;;;34.58;31.34
7337;BME280;54510;42.016;23.098;2022-08-19T08:26:18;-22023.06;;;32.70;34.20
7337;BME280;54510;42.016;23.098;2022-08-19T08:28:43;-22015.41;;;32.41;35.04
7337;BME280;54510;42.016;23.098;2022-08-19T08:31:09;-21983.06;;;31.20;35.72
7337;BME280;54510;42.016;23.098;2022-08-19T08:33:35;-21966.59;;;30.58;37.31
7337;BME280;54510;42.016;23.098;2022-08-19T08:36:04;-22002.06;;;31.91;35.43
7337;BME280;54510;42.016;23.098;2022-08-19T08:38:31;-21977.13;;;30.97;37.44
7337;BME280;54510;42.016;23.098;2022-08-19T08:41:02;-21981.16;;;31.13;36.91
7337;BME280;54510;42.016;23.098;2022-08-19T08:43:40;-22025.34;;;32.79;34.41
7337;BME280;54510;42.016;23.098;2022-08-19T08:46:48;-22060.41;;;34.11;32.99
7337;BME280;54510;42.016;23.098;2022-08-19T08:52:08;-22028.03;;;32.89;34.97
7337;BME280;54510;42.016;23.098;2022-08-19T08:54:47;-22022.66;;;32.69;35.75
7337;BME280;54510;42.016;23.098;2022-08-19T08:57:34;-22033.16;;;33.08;35.33
7337;BME280;54510;42.016;23.098;2022-08-19T09:00:03;-22038.78;;;33.29;34.12
7337;BME280;54510;42.016;23.098;2022-08-19T09:02:31;-22043.91;;;33.49;33.97
7337;BME280;54510;42.016;23.098;2022-08-19T09:04:56;-22057.47;;;34.00;33.32
7337;BME280;54510;42.016;23.098;2022-08-19T09:10:22;-22066.84;;;34.35;33.12
7337;BME280;54510;42.016;23.098;2022-08-19T09:15:48;-22079.19;;;34.82;32.39
7337;BME280;54510;42.016;23.098;2022-08-19T09:18:17;-22078.13;;;34.78;32.08
7337;BME280;54510;42.016;23.098;2022-08-19T09:20:43;-22070.47;;;34.49;32.00
7337;BME280;54510;42.016;23.098;2022-08-19T09:23:09;-22075.72;;;34.69;31.99
7337;BME280;54510;42.016;23.098;2022-08-19T09:25:36;-22082.53;;;34.95;32.19
7337;BME280;54510;42.016;23.098;2022-08-19T09:28:01;-22086.84;;;35.11;31.25
7337;BME280;54510;42.016;23.098;2022-08-19T09:30:38;-22085.50;;;35.06;30.97
7337;BME280;54510;42.016;23.098;2022-08-19T09:33:06;-22081.22;;;34.90;31.01
7337;BME280;54510;42.016;23.098;2022-08-19T09:35:32;-22082.53;;;34.95;31.22
7337;BME280;54510;42.016;23.098;2022-08-19T09:37:59;-22079.59;;;34.83;31.35
7337;BME280;54510;42.016;23.098;2022-08-19T09:40:26;-22084.41;;;35.02;31.14
7337;BME280;54510;42.016;23.098;2022-08-19T09:42:52;-22084.16;;;35.01;31.17
7337;BME280;54510;42.016;23.098;2022-08-19T09:45:21;-22092.72;;;35.33;31.50
7337;BME280;54510;42.016;23.098;2022-08-19T09:47:47;-22093.00;;;35.34;31.24
7337;BME280;54510;42.016;23.098;2022-08-19T09:50:14;-22095.66;;;35.44;31.48
7337;BME280;54510;42.016;23.098;2022-08-19T09:52:39;-22098.75;;;35.56;30.51
7337;BME280;54510;42.016;23.098;2022-08-19T09:55:09;-22101.97;;;35.68;30.07
7337;BME280;54510;42.016;23.098;2022-08-19T09:57:35;-22105.59;;;35.82;30.72
7337;BME280;54510;42.016;23.098;2022-08-19T10:00:02;-22109.19;;;35.95;30.28
7337;BME280;54510;42.016;23.098;2022-08-19T10:02:28;-22117.09;;;36.25;30.46
7337;BME280;54510;42.016;23.098;2022-08-19T10:04:53;-22116.00;;;36.21;30.40
7337;BME280;54510;42.016;23.098;2022-08-19T10:07:37;-22114.41;;;36.15;29.87
7337;BME280;54510;42.016;23.098;2022-08-19T10:10:05;-22119.63;;;36.35;29.40
7337;BME280;54510;42.016;23.098;2022-08-19T10:12:32;-22121.22;;;36.41;29.36
7337;BME280;54510;42.016;23.098;2022-08-19T10:14:58;-22118.81;;;36.32;29.16
7337;BME280;54510;42.016;23.098;2022-08-19T10:17:24;-22120.81;;;36.39;29.32
7337;BME280;54510;42.016;23.098;2022-08-19T10:19:50;-22130.19;;;36.75;29.44
7337;BME280;54510;42.016;23.098;2022-08-19T10:22:17;-22098.09;;;35.53;30.22
7337;BME280;54510;42.016;23.098;2022-08-19T10:24:43;-22117.63;;;36.27;28.48
7337;BME280;54510;42.016;23.098;2022-08-19T10:27:09;-22126.44;;;36.61;29.28
7337;BME280;54510;42.016;23.098;2022-08-19T10:29:34;-22130.03;;;36.74;29.24
7337;BME280;54510;42.016;23.098;2022-08-19T10:32:05;-22130.97;;;36.78;28.80
7337;BME280;54510;42.016;23.098;2022-08-19T10:34:32;-22135.38;;;36.95;28.98
7337;BME280;54510;42.016;23.098;2022-08-19T10:36:59;-22137.00;;;37.01;28.97
7337;BME280;54510;42.016;23.098;2022-08-19T10:39:26;-22125.63;;;36.58;28.75
7337;BME280;54510;42.016;23.098;2022-08-19T10:41:54;-22126.31;;;36.60;28.62
7337;BME280;54510;42.016;23.098;2022-08-19T10:44:21;-22142.19;;;37.21;28.74
7337;BME280;54510;42.016;23.098;2022-08-19T10:46:48;-22133.13;;;36.86;27.50
7337;BME280;54510;42.016;23.098;2022-08-19T10:49:14;-22137.78;;;37.04;27.68
7337;BME280;54510;42.016;23.098;2022-08-19T10:51:40;-22143.41;;;37.25;26.68
7337;BME280;54510;42.016;23.098;2022-08-19T10:54:24;-22156.06;;;37.73;27.67
7337;BME280;54510;42.016;23.098;2022-08-19T10:57:10;-22158.59;;;37.83;27.31
7337;BME280;54510;42.016;23.098;2022-08-19T10:59:36;-22156.22;;;37.74;26.32
7337;BME280;54510;42.016;23.098;2022-08-19T11:02:04;-22161.41;;;37.93;25.25
7337;BME280;54510;42.016;23.098;2022-08-19T11:04:29;-22163.94;;;38.03;26.65
7337;BME280;54510;42.016;23.098;2022-08-19T11:06:57;-22157.94;;;37.80;25.74
7337;BME280;54510;42.016;23.098;2022-08-19T11:09:23;-22154.88;;;37.69;25.59
7337;BME280;54510;42.016;23.098;2022-08-19T11:11:50;-22160.47;;;37.90;25.96
7337;BME280;54510;42.016;23.098;2022-08-19T11:14:19;-22169.53;;;38.24;26.17
7337;BME280;54510;42.016;23.098;2022-08-19T11:16:49;-22167.13;;;38.15;25.40
7337;BME280;54510;42.016;23.098;2022-08-19T11:19:16;-22177.00;;;38.53;25.09
7337;BME280;54510;42.016;23.098;2022-08-19T11:21:46;-22173.41;;;38.39;24.58
7337;BME280;54510;42.016;23.098;2022-08-19T11:24:15;-22175.66;;;38.48;26.77
7337;BME280;54510;42.016;23.098;2022-08-19T11:26:42;-22173.53;;;38.40;25.42
7337;BME280;54510;42.016;23.098;2022-08-19T11:29:10;-22182.19;;;38.72;24.37
7337;BME280;54510;42.016;23.098;2022-08-19T11:31:37;-22178.88;;;38.60;24.85
7337;BME280;54510;42.016;23.098;2022-08-19T11:34:07;-22178.31;;;38.58;24.86
7337;BME280;54510;42.016;23.098;2022-08-19T11:36:34;-22179.94;;;38.64;24.05
7337;BME280;54510;42.016;23.098;2022-08-19T11:39:04;-22183.66;;;38.78;24.81
7337;BME280;54510;42.016;23.098;2022-08-19T11:41:30;-22180.72;;;38.67;24.24
7337;BME280;54510;42.016;23.098;2022-08-19T11:43:56;-22193.78;;;39.17;24.87
7337;BME280;54510;42.016;23.098;2022-08-19T11:46:24;-22191.91;;;39.09;23.97
7337;BME280;54510;42.016;23.098;2022-08-19T11:48:50;-22196.81;;;39.28;24.22
7337;BME280;54510;42.016;23.098;2022-08-19T11:51:19;-22200.03;;;39.40;24.46
7337;BME280;54510;42.016;23.098;2022-08-19T11:53:45;-22201.63;;;39.46;23.71
7337;BME280;54510;42.016;23.098;2022-08-19T11:56:11;-22206.78;;;39.66;23.28
7337;BME280;54510;42.016;23.098;2022-08-19T11:58:37;-22210.13;;;39.79;24.09
7337;BME280;54510;42.016;23.098;2022-08-19T12:01:09;-22209.97;;;39.78;23.99
7337;BME280;54510;42.016;23.098;2022-08-19T12:03:37;-22212.50;;;39.88;22.98
7337;BME280;54510;42.016;23.098;2022-08-19T12:06:10;-22216.09;;;40.02;23.16
7337;BME280;54510;42.016;23.098;2022-08-19T12:08:39;-22231.09;;;40.59;23.54
7337;BME280;54510;42.016;23.098;2022-08-19T12:11:05;-22219.28;;;40.14;23.04
7337;BME280;54510;42.016;23.098;2022-08-19T12:13:33;-22218.47;;;40.11;22.90
7337;BME280;54510;42.016;23.098;2022-08-19T12:15:59;-22216.38;;;40.03;22.81
7337;BME280;54510;42.016;23.098;2022-08-19T12:18:25;-22210.53;;;39.80;22.37
7337;BME280;54510;42.016;23.098;2022-08-19T12:20:52;-22221.53;;;40.22;23.34
7337;BME280;54510;42.016;23.098;2022-08-19T12:23:20;-22226.31;;;40.41;22.41
7337;BME280;54510;42.016;23.098;2022-08-19T12:25:48;-22227.78;;;40.46;22.22
7337;BME280;54510;42.016;23.098;2022-08-19T12:28:18;-22233.34;;;40.68;22.69
7337;BME280;54510;42.016;23.098;2022-08-19T12:30:44;-22226.84;;;40.43;22.02
7337;BME280;54510;42.016;23.098;2022-08-19T12:33:09;-22242.50;;;41.02;22.09
7337;BME280;54510;42.016;23.098;2022-08-19T12:35:34;-22241.31;;;40.98;21.80
7337;BME280;54510;42.016;23.098;2022-08-19T12:38:00;-22239.84;;;40.92;21.69
7337;BME280;54510;42.016;23.098;2022-08-19T12:40:28;-22225.13;;;40.36;22.09
7337;BME280;54510;42.016;23.098;2022-08-19T12:42:53;-22214.22;;;39.95;22.08
7337;BME280;54510;42.016;23.098;2022-08-19T12:45:19;-22223.13;;;40.29;22.73
7337;BME280;54510;42.016;23.098;2022-08-19T12:47:45;-22236.66;;;40.80;23.39
7337;BME280;54510;42.016;23.098;2022-08-19T12:50:11;-22240.91;;;40.96;22.71
7337;BME280;54510;42.016;23.098;2022-08-19T12:52:37;-22239.59;;;40.91;21.10
7337;BME280;54510;42.016;23.098;2022-08-19T12:55:04;-22241.31;;;40.98;20.92
7337;BME280;54510;42.016;23.098;2022-08-19T12:57:31;-22248.47;;;41.25;20.59
7337;BME280;54510;42.016;23.098;2022-08-19T13:02:38;-22242.50;;;41.02;20.58
7337;BME280;54510;42.016;23.098;2022-08-19T13:05:05;-22252.44;;;41.40;21.36
7337;BME280;54510;42.016;23.098;2022-08-19T13:07:33;-22253.09;;;41.43;20.83
7337;BME280;54510;42.016;23.098;2022-08-19T13:09:58;-22248.19;;;41.24;20.95
7337;BME280;54510;42.016;23.098;2022-08-19T13:12:24;-22240.13;;;40.93;22.14